Time;durP1;ratioP1;P1;durP2;ratioP2;P2;SDS_P1;SDS_P2;PMS_P1;PMS_P2;Temp;Humidity;BMP_temperature;BMP_pressure;BME280_temperature;BME280_humidity;BME280_pressure;Samples;Min_cycle;Max_cycle;Signal;HPM_P1;HPM_P2
2024/02/19 00:00:54;;;;;;;0.30;0.23;;;;;;;;;;4979144;28;87749;-62
2024/02/19 00:03:20;;;;;;;1.10;0.50;;;;;;;;;;4977110;28;87855;-62
2024/02/19 00:05:45;;;;;;;1.30;0.40;;;;;;;;;;4975583;28;89157;-62
2024/02/19 00:08:10;;;;;;;2.60;0.60;;;;;;;;;;4976349;28;87176;-62
2024/02/19 00:10:36;;;;;;;0.80;0.50;;;;;;;;;;4981931;28;87674;-62
2024/02/19 00:13:01;;;;;;;0.80;0.60;;;;;;;;;;4980754;28;88285;-61
2024/02/19 00:15:26;;;;;;;1.90;0.60;;;;;;;;;;4983287;28;87316;-62
2024/02/19 00:17:52;;;;;;;0.67;0.53;;;;;;;;;;4977573;28;88430;-62
2024/02/19 00:20:17;;;;;;;0.97;0.60;;;;;;;;;;4980889;28;87117;-62
2024/02/19 00:22:42;;;;;;;0.50;0.50;;;;;;;;;;4978066;28;87423;-62
2024/02/19 00:25:08;;;;;;;0.80;0.40;;;;;;;;;;4978559;28;87049;-61
2024/02/19 00:27:33;;;;;;;1.87;0.70;;;;;;;;;;4973497;28;88844;-62
2024/02/19 00:29:58;;;;;;;1.13;0.53;;;;;;;;;;4983853;28;87084;-62
2024/02/19 00:32:24;;;;;;;0.63;0.50;;;;;;;;;;4979596;28;87386;-62
2024/02/19 00:34:49;;;;;;;0.90;0.47;;;;;;;;;;4981482;28;86957;-62
2024/02/19 00:37:14;;;;;;;0.90;0.70;;;;;;;;;;4980635;28;87147;-63
2024/02/19 00:39:39;;;;;;;1.90;0.50;;;;;;;;;;4976860;28;87040;-62
2024/02/19 00:42:05;;;;;;;1.10;0.53;;;;;;;;;;4979645;28;87338;-62
2024/02/19 00:44:30;;;;;;;2.97;0.87;;;;;;;;;;4977952;28;87193;-62
2024/02/19 00:46:55;;;;;;;0.70;0.40;;;;;;;;;;4977555;28;87777;-63
2024/02/19 00:49:21;;;;;;;1.00;0.50;;;;;;;;;;4975189;28;87451;-62
2024/02/19 00:51:46;;;;;;;2.07;0.60;;;;;;;;;;4972768;28;88389;-62
2024/02/19 00:54:11;;;;;;;1.50;0.60;;;;;;;;;;4979630;28;87525;-62
2024/02/19 00:56:40;;;;;;;0.70;0.50;;;;;;;;;;4979882;28;87070;-62
2024/02/19 00:59:07;;;;;;;0.55;0.47;;;;;;;;;;4977671;28;88113;-62
2024/02/19 01:01:32;;;;;;;2.40;0.50;;;;;;;;;;4979681;28;87615;-62
2024/02/19 01:03:57;;;;;;;1.23;0.50;;;;;;;;;;4973371;28;87611;-62
2024/02/19 01:06:23;;;;;;;0.90;0.40;;;;;;;;;;4976527;28;87601;-62
2024/02/19 01:08:49;;;;;;;1.05;0.35;;;;;;;;;;4976585;28;87053;-62
2024/02/19 01:11:14;;;;;;;1.33;0.60;;;;;;;;;;4977234;28;87329;-62
2024/02/19 01:13:39;;;;;;;2.23;0.57;;;;;;;;;;4976448;28;87039;-62
2024/02/19 01:16:05;;;;;;;1.97;0.60;;;;;;;;;;4985946;28;88090;-62
2024/02/19 01:18:30;;;;;;;1.60;0.63;;;;;;;;;;4976466;28;87784;-62
2024/02/19 01:20:55;;;;;;;0.77;0.57;;;;;;;;;;4975241;28;87025;-62
2024/02/19 01:23:21;;;;;;;0.80;0.50;;;;;;;;;;4976866;28;86924;-63
2024/02/19 01:25:46;;;;;;;1.20;0.47;;;;;;;;;;4976800;28;87215;-62
2024/02/19 01:28:11;;;;;;;1.23;0.50;;;;;;;;;;4978991;28;87055;-62
2024/02/19 01:30:37;;;;;;;0.87;0.50;;;;;;;;;;4979967;28;87686;-62
2024/02/19 01:33:03;;;;;;;1.50;0.40;;;;;;;;;;4977700;28;86902;-62
2024/02/19 01:35:29;;;;;;;1.25;0.73;;;;;;;;;;4975323;28;86943;-61
2024/02/19 01:37:54;;;;;;;0.97;0.60;;;;;;;;;;4984004;28;87169;-62
2024/02/19 01:40:19;;;;;;;0.40;0.30;;;;;;;;;;4970939;28;88046;-62
2024/02/19 01:42:46;;;;;;;1.50;0.60;;;;;;;;;;4980014;28;88347;-62
2024/02/19 01:45:29;;;;;;;0.65;0.40;;;;;;;;;;4979846;28;87351;-62
2024/02/19 01:47:56;;;;;;;0.65;0.45;;;;;;;;;;4976412;28;87587;-62
2024/02/19 01:50:25;;;;;;;0.60;0.43;;;;;;;;;;4977428;28;87190;-62
2024/02/19 01:52:51;;;;;;;2.20;0.60;;;;;;;;;;4976564;28;87011;-63
2024/02/19 01:55:17;;;;;;;1.57;0.50;;;;;;;;;;4976493;28;87775;-62
2024/02/19 01:57:42;;;;;;;2.97;0.50;;;;;;;;;;4977690;28;86453;-62
2024/02/19 02:00:10;;;;;;;0.50;0.47;;;;;;;;;;4980155;28;87442;-62
2024/02/19 02:02:36;;;;;;;0.63;0.40;;;;;;;;;;4981086;28;87334;-62
2024/02/19 02:05:01;;;;;;;1.00;0.40;;;;;;;;;;4975642;28;88402;-62
2024/02/19 02:07:26;;;;;;;1.17;0.43;;;;;;;;;;4977572;28;87033;-62
2024/02/19 02:09:53;;;;;;;1.00;0.40;;;;;;;;;;4978341;28;87078;-61
2024/02/19 02:12:19;;;;;;;1.80;0.40;;;;;;;;;;4977225;28;87034;-62
2024/02/19 02:14:44;;;;;;;0.60;0.40;;;;;;;;;;4977679;28;87031;-62
2024/02/19 02:17:09;;;;;;;1.10;0.60;;;;;;;;;;4977520;28;87329;-62
2024/02/19 02:19:35;;;;;;;1.13;0.67;;;;;;;;;;4979644;28;87598;-62
2024/02/19 02:22:01;;;;;;;1.00;0.60;;;;;;;;;;4984168;28;86203;-62
2024/02/19 02:24:26;;;;;;;0.40;0.30;;;;;;;;;;4982867;28;87952;-62
2024/02/19 02:26:51;;;;;;;2.67;0.60;;;;;;;;;;4956483;28;87558;-62
2024/02/19 02:29:16;;;;;;;0.97;0.60;;;;;;;;;;4981105;28;88091;-62
2024/02/19 02:31:42;;;;;;;0.67;0.40;;;;;;;;;;4980454;28;87100;-62
2024/02/19 02:34:07;;;;;;;0.57;0.20;;;;;;;;;;4980603;28;87075;-62
2024/02/19 02:36:33;;;;;;;1.40;0.30;;;;;;;;;;4981959;28;87351;-62
2024/02/19 02:38:58;;;;;;;1.33;0.43;;;;;;;;;;4976294;28;87944;-62
2024/02/19 02:41:23;;;;;;;0.23;0.20;;;;;;;;;;4981030;28;87875;-62
2024/02/19 02:43:49;;;;;;;1.20;0.40;;;;;;;;;;4982773;28;87223;-62
2024/02/19 02:46:14;;;;;;;1.10;0.50;;;;;;;;;;4980902;28;86910;-62
2024/02/19 02:48:40;;;;;;;0.85;0.35;;;;;;;;;;4979334;28;87070;-62
2024/02/19 02:51:05;;;;;;;0.47;0.40;;;;;;;;;;4977343;28;87723;-62
2024/02/19 02:53:30;;;;;;;1.17;0.30;;;;;;;;;;4978476;28;88116;-62
2024/02/19 02:55:55;;;;;;;0.83;0.60;;;;;;;;;;4977314;28;88536;-62
2024/02/19 02:58:21;;;;;;;0.47;0.30;;;;;;;;;;4982415;28;87242;-62
2024/02/19 03:00:46;;;;;;;0.67;0.40;;;;;;;;;;4978464;28;87316;-61
2024/02/19 03:03:11;;;;;;;0.90;0.40;;;;;;;;;;4984258;28;87564;-62
2024/02/19 03:05:38;;;;;;;0.70;0.33;;;;;;;;;;4978073;28;87259;-62
2024/02/19 03:08:03;;;;;;;0.70;0.43;;;;;;;;;;4981064;28;87305;-62
2024/02/19 03:10:29;;;;;;;1.00;0.40;;;;;;;;;;4975558;28;87915;-62
2024/02/19 03:12:54;;;;;;;2.20;0.70;;;;;;;;;;4977634;28;87912;-62
2024/02/19 03:15:19;;;;;;;0.73;0.43;;;;;;;;;;4982818;28;87162;-62
2024/02/19 03:17:45;;;;;;;0.40;0.37;;;;;;;;;;4980370;28;88224;-62
2024/02/19 03:20:13;;;;;;;0.77;0.40;;;;;;;;;;4981461;28;87468;-62
2024/02/19 03:22:38;;;;;;;0.73;0.50;;;;;;;;;;4980422;28;87563;-62
2024/02/19 03:25:05;;;;;;;0.20;0.20;;;;;;;;;;4982520;28;89767;-62
2024/02/19 03:27:30;;;;;;;0.50;0.40;;;;;;;;;;4972743;28;87236;-62
2024/02/19 03:29:55;;;;;;;0.50;0.20;;;;;;;;;;4977204;28;87438;-62
2024/02/19 03:32:20;;;;;;;0.77;0.30;;;;;;;;;;4974505;28;87362;-61
2024/02/19 03:34:46;;;;;;;1.00;0.37;;;;;;;;;;4981023;28;86481;-62
2024/02/19 03:37:12;;;;;;;0.40;0.40;;;;;;;;;;4979795;28;88125;-61
2024/02/19 03:39:37;;;;;;;0.65;0.38;;;;;;;;;;4978005;28;87194;-62
2024/02/19 03:42:02;;;;;;;0.30;0.30;;;;;;;;;;4978390;28;88322;-62
2024/02/19 03:44:28;;;;;;;0.30;0.30;;;;;;;;;;4982557;28;86939;-62
2024/02/19 03:46:53;;;;;;;0.60;0.40;;;;;;;;;;4980382;28;87180;-62
2024/02/19 03:49:18;;;;;;;0.70;0.40;;;;;;;;;;4977682;28;86934;-61
2024/02/19 03:51:43;;;;;;;0.40;0.30;;;;;;;;;;4977407;28;87259;-62
2024/02/19 03:54:08;;;;;;;0.70;0.43;;;;;;;;;;4983847;28;87597;-62
2024/02/19 03:56:34;;;;;;;0.60;0.50;;;;;;;;;;4977296;28;88466;-62
2024/02/19 03:59:00;;;;;;;0.50;0.40;;;;;;;;;;4978140;28;86427;-62
2024/02/19 04:01:25;;;;;;;0.67;0.30;;;;;;;;;;4974933;28;87720;-62
2024/02/19 04:03:50;;;;;;;1.77;0.50;;;;;;;;;;4980670;28;87304;-62
2024/02/19 04:06:15;;;;;;;0.30;0.30;;;;;;;;;;4976795;28;88367;-62
2024/02/19 04:08:41;;;;;;;0.43;0.27;;;;;;;;;;4979792;28;88360;-62
2024/02/19 04:11:06;;;;;;;0.60;0.33;;;;;;;;;;4980471;28;87180;-62
2024/02/19 04:13:31;;;;;;;0.23;0.23;;;;;;;;;;4979762;28;87725;-62
2024/02/19 04:15:56;;;;;;;0.90;0.43;;;;;;;;;;4977667;28;88274;-61
2024/02/19 04:18:21;;;;;;;0.68;0.38;;;;;;;;;;4980653;28;87127;-62
2024/02/19 04:20:47;;;;;;;2.13;0.33;;;;;;;;;;4976647;28;87446;-61
2024/02/19 04:23:12;;;;;;;0.70;0.40;;;;;;;;;;4979737;28;86105;-62
2024/02/19 04:25:37;;;;;;;0.20;0.20;;;;;;;;;;4977650;28;86984;-61
2024/02/19 04:28:03;;;;;;;0.77;0.30;;;;;;;;;;4979919;28;88100;-62
2024/02/19 04:30:29;;;;;;;0.20;0.20;;;;;;;;;;4978179;28;89336;-62
2024/02/19 04:32:54;;;;;;;0.63;0.30;;;;;;;;;;4972021;28;88534;-62
2024/02/19 04:35:19;;;;;;;0.60;0.40;;;;;;;;;;4977126;28;87856;-62
2024/02/19 04:37:45;;;;;;;1.20;0.40;;;;;;;;;;4977280;28;87540;-62
2024/02/19 04:40:12;;;;;;;0.40;0.30;;;;;;;;;;4975177;28;86924;-63
2024/02/19 04:42:37;;;;;;;0.70;0.20;;;;;;;;;;4975236;28;87206;-62
2024/02/19 04:45:03;;;;;;;0.88;0.50;;;;;;;;;;4968823;28;87100;-62
2024/02/19 04:47:28;;;;;;;0.93;0.55;;;;;;;;;;4976226;28;87224;-62
2024/02/19 04:49:53;;;;;;;1.13;0.50;;;;;;;;;;4980489;28;88318;-61
2024/02/19 04:52:18;;;;;;;0.33;0.30;;;;;;;;;;4976756;28;87404;-62
2024/02/19 04:54:44;;;;;;;0.30;0.30;;;;;;;;;;4977756;28;89170;-62
2024/02/19 04:57:09;;;;;;;0.30;0.10;;;;;;;;;;4971875;28;87068;-62
2024/02/19 04:59:34;;;;;;;0.33;0.30;;;;;;;;;;4976255;28;89297;-62
2024/02/19 05:01:59;;;;;;;0.53;0.33;;;;;;;;;;4978036;28;87033;-62
2024/02/19 05:04:26;;;;;;;0.50;0.37;;;;;;;;;;4976029;28;87873;-57
2024/02/19 05:06:51;;;;;;;0.98;0.40;;;;;;;;;;4979175;28;87877;-57
2024/02/19 05:09:16;;;;;;;0.53;0.30;;;;;;;;;;4977797;28;87678;-62
2024/02/19 05:11:42;;;;;;;0.20;0.20;;;;;;;;;;4979973;28;87724;-59
2024/02/19 05:14:07;;;;;;;0.30;0.30;;;;;;;;;;4977200;28;87239;-64
2024/02/19 05:16:32;;;;;;;0.50;0.20;;;;;;;;;;4978525;28;89674;-62
2024/02/19 05:18:59;;;;;;;0.70;0.50;;;;;;;;;;4977456;28;87984;-62
2024/02/19 05:21:25;;;;;;;0.38;0.28;;;;;;;;;;4974623;28;87438;-62
2024/02/19 05:23:50;;;;;;;3.40;0.67;;;;;;;;;;4979066;28;87254;-62
2024/02/19 05:26:22;;;;;;;1.30;0.50;;;;;;;;;;4971090;28;87425;-62
2024/02/19 05:28:48;;;;;;;1.67;0.65;;;;;;;;;;4975202;28;87414;-63
2024/02/19 05:31:13;;;;;;;3.27;0.90;;;;;;;;;;4977715;28;88057;-60
2024/02/19 05:33:38;;;;;;;1.97;0.77;;;;;;;;;;4977300;28;88346;-61
2024/02/19 05:36:04;;;;;;;1.50;0.90;;;;;;;;;;4975813;28;86247;-62
2024/02/19 05:38:29;;;;;;;1.23;0.47;;;;;;;;;;4977134;28;87723;-60
2024/02/19 05:40:54;;;;;;;2.60;0.70;;;;;;;;;;4975432;28;87889;-62
2024/02/19 05:43:20;;;;;;;2.23;0.87;;;;;;;;;;4974602;28;87970;-61
2024/02/19 05:45:45;;;;;;;2.03;0.90;;;;;;;;;;4979502;28;88039;-61
2024/02/19 05:48:10;;;;;;;1.10;0.80;;;;;;;;;;4976314;28;87374;-62
2024/02/19 05:50:35;;;;;;;0.93;0.40;;;;;;;;;;4975573;28;87275;-62
2024/02/19 05:53:01;;;;;;;4.27;0.70;;;;;;;;;;4975381;28;87646;-59
2024/02/19 05:55:26;;;;;;;3.25;0.85;;;;;;;;;;4976280;28;88026;-61
2024/02/19 05:57:52;;;;;;;3.07;0.90;;;;;;;;;;4978028;28;87056;-60
2024/02/19 06:00:17;;;;;;;1.40;0.67;;;;;;;;;;4975259;28;86959;-63
2024/02/19 06:02:43;;;;;;;2.03;0.75;;;;;;;;;;4975340;28;87542;-62
2024/02/19 06:05:08;;;;;;;8.17;0.90;;;;;;;;;;4975481;28;87720;-62
2024/02/19 06:07:34;;;;;;;1.40;0.70;;;;;;;;;;4975208;28;88730;-60
2024/02/19 06:09:59;;;;;;;5.20;0.90;;;;;;;;;;4978746;28;88011;-62
2024/02/19 06:12:24;;;;;;;2.10;1.10;;;;;;;;;;4969624;28;87408;-60
2024/02/19 06:14:50;;;;;;;1.60;0.63;;;;;;;;;;4970905;28;87580;-61
2024/02/19 06:17:15;;;;;;;1.77;0.67;;;;;;;;;;4978223;28;87033;-55
2024/02/19 06:19:40;;;;;;;2.83;0.70;;;;;;;;;;4977987;28;87667;-53
2024/02/19 06:22:05;;;;;;;1.98;0.77;;;;;;;;;;4980707;28;87033;-56
2024/02/19 06:24:31;;;;;;;1.70;0.87;;;;;;;;;;4981525;28;86626;-58
2024/02/19 06:26:56;;;;;;;3.77;0.63;;;;;;;;;;4978713;28;87240;-55
2024/02/19 06:29:21;;;;;;;1.80;0.75;;;;;;;;;;4975317;28;87679;-58
2024/02/19 06:31:49;;;;;;;4.57;1.00;;;;;;;;;;4977231;28;90415;-55
2024/02/19 06:34:15;;;;;;;3.25;0.85;;;;;;;;;;4974960;28;87976;-55
2024/02/19 06:36:40;;;;;;;0.80;0.63;;;;;;;;;;4981898;28;87604;-55
2024/02/19 06:39:06;;;;;;;5.83;1.00;;;;;;;;;;4969516;28;87304;-55
2024/02/19 06:41:32;;;;;;;0.65;0.30;;;;;;;;;;4975380;28;87443;-57
2024/02/19 06:43:57;;;;;;;4.60;0.73;;;;;;;;;;4974220;28;87346;-55
2024/02/19 06:46:22;;;;;;;3.10;1.10;;;;;;;;;;4978000;28;87511;-57
2024/02/19 06:48:47;;;;;;;0.80;0.40;;;;;;;;;;4974764;28;86312;-57
2024/02/19 06:51:13;;;;;;;4.47;1.20;;;;;;;;;;4974230;28;87532;-54
2024/02/19 06:53:38;;;;;;;5.47;1.00;;;;;;;;;;4973707;28;88043;-55
2024/02/19 06:56:06;;;;;;;3.63;0.80;;;;;;;;;;4973139;28;88724;-56
2024/02/19 06:58:31;;;;;;;3.10;0.87;;;;;;;;;;4977670;28;88186;-58
2024/02/19 07:00:56;;;;;;;2.43;0.80;;;;;;;;;;4972079;28;87634;-54
2024/02/19 07:03:21;;;;;;;2.30;0.70;;;;;;;;;;4973978;28;87344;-56
2024/02/19 07:05:47;;;;;;;3.67;0.63;;;;;;;;;;4979804;28;87028;-56
2024/02/19 07:08:14;;;;;;;1.70;0.73;;;;;;;;;;4977467;28;87067;-57
2024/02/19 07:10:40;;;;;;;1.90;0.70;;;;;;;;;;4979301;28;87850;-56
2024/02/19 07:13:05;;;;;;;2.65;1.05;;;;;;;;;;4977423;28;86770;-55
2024/02/19 07:15:30;;;;;;;4.37;0.87;;;;;;;;;;4978781;28;87485;-55
2024/02/19 07:17:55;;;;;;;2.47;0.70;;;;;;;;;;4982743;28;87044;-55
2024/02/19 07:20:21;;;;;;;6.73;0.70;;;;;;;;;;4973566;28;88877;-56
2024/02/19 07:22:46;;;;;;;1.60;0.50;;;;;;;;;;4976616;28;87654;-60
2024/02/19 07:25:11;;;;;;;3.90;0.70;;;;;;;;;;4976122;28;87074;-55
2024/02/19 07:27:36;;;;;;;11.80;2.07;;;;;;;;;;4977629;28;88047;-56
2024/02/19 07:30:02;;;;;;;4.30;0.80;;;;;;;;;;4980480;28;87042;-55
2024/02/19 07:32:27;;;;;;;5.82;1.30;;;;;;;;;;4981109;28;86766;-58
2024/02/19 07:34:52;;;;;;;3.50;1.13;;;;;;;;;;4979584;28;87006;-57
2024/02/19 07:37:17;;;;;;;4.00;1.00;;;;;;;;;;4979419;28;86457;-56
2024/02/19 07:39:43;;;;;;;4.07;1.20;;;;;;;;;;4976776;28;87450;-54
2024/02/19 07:42:08;;;;;;;5.85;1.40;;;;;;;;;;4982662;28;88528;-55
2024/02/19 07:44:34;;;;;;;6.67;1.40;;;;;;;;;;4980670;28;88661;-57
2024/02/19 07:46:59;;;;;;;7.57;1.93;;;;;;;;;;4981772;28;87326;-58
2024/02/19 07:49:24;;;;;;;3.13;1.00;;;;;;;;;;4974151;28;87517;-56
2024/02/19 07:51:49;;;;;;;6.93;1.13;;;;;;;;;;4977635;28;87638;-57
2024/02/19 07:54:14;;;;;;;4.57;1.47;;;;;;;;;;4976832;28;87002;-56
2024/02/19 07:56:40;;;;;;;4.43;1.07;;;;;;;;;;4977395;28;87561;-56
2024/02/19 07:59:05;;;;;;;4.57;0.93;;;;;;;;;;4976041;28;88000;-54
2024/02/19 08:01:30;;;;;;;7.63;1.10;;;;;;;;;;4976335;28;86488;-56
2024/02/19 08:03:56;;;;;;;3.37;1.07;;;;;;;;;;4988661;28;87242;-59
2024/02/19 08:06:21;;;;;;;4.10;1.03;;;;;;;;;;4977879;28;88212;-56
2024/02/19 08:08:46;;;;;;;4.50;1.10;;;;;;;;;;4978337;28;88002;-56
2024/02/19 08:11:13;;;;;;;4.97;1.17;;;;;;;;;;4977359;28;86989;-54
2024/02/19 08:13:40;;;;;;;3.15;0.70;;;;;;;;;;4980781;28;87349;-59
2024/02/19 08:16:05;;;;;;;2.85;0.95;;;;;;;;;;4981105;28;87428;-56
2024/02/19 08:18:31;;;;;;;6.50;1.07;;;;;;;;;;4973804;28;87094;-57
2024/02/19 08:20:56;;;;;;;9.47;1.27;;;;;;;;;;4978979;28;87675;-57
2024/02/19 08:23:21;;;;;;;4.70;1.27;;;;;;;;;;4975494;28;89272;-59
2024/02/19 08:25:47;;;;;;;7.87;1.10;;;;;;;;;;4982959;28;86300;-55
2024/02/19 08:28:12;;;;;;;3.20;1.00;;;;;;;;;;4976900;28;86954;-56
2024/02/19 08:30:38;;;;;;;2.90;1.00;;;;;;;;;;4980822;28;88119;-56
2024/02/19 08:33:03;;;;;;;6.63;0.93;;;;;;;;;;4971884;28;87911;-58
2024/02/19 08:35:28;;;;;;;9.90;1.40;;;;;;;;;;4976540;28;88425;-57
2024/02/19 08:37:53;;;;;;;3.63;0.60;;;;;;;;;;4976304;28;87198;-55
2024/02/19 08:40:19;;;;;;;1.47;0.77;;;;;;;;;;4975703;28;87346;-55
2024/02/19 08:42:44;;;;;;;2.93;0.43;;;;;;;;;;4975835;28;89849;-59
2024/02/19 08:45:09;;;;;;;4.43;1.17;;;;;;;;;;4982391;28;87701;-59
2024/02/19 08:47:36;;;;;;;2.10;0.90;;;;;;;;;;4976019;28;86964;-56
2024/02/19 08:50:01;;;;;;;0.97;0.53;;;;;;;;;;4977454;28;87002;-55
2024/02/19 08:52:27;;;;;;;1.80;0.80;;;;;;;;;;4977065;28;87116;-57
2024/02/19 08:54:52;;;;;;;4.10;0.80;;;;;;;;;;4978914;28;88305;-57
2024/02/19 08:57:17;;;;;;;5.33;0.87;;;;;;;;;;4975058;28;89598;-54
2024/02/19 08:59:45;;;;;;;0.80;0.40;;;;;;;;;;4972052;28;86994;-56
2024/02/19 09:02:11;;;;;;;1.47;0.50;;;;;;;;;;4976437;28;87751;-56
2024/02/19 09:04:37;;;;;;;4.47;0.75;;;;;;;;;;4983998;28;87003;-55
2024/02/19 09:07:02;;;;;;;1.20;0.57;;;;;;;;;;4979163;28;87135;-56
2024/02/19 09:09:27;;;;;;;3.03;1.10;;;;;;;;;;4977403;28;87194;-56
2024/02/19 09:11:52;;;;;;;6.03;0.90;;;;;;;;;;4976700;28;87136;-57
2024/02/19 09:14:19;;;;;;;3.25;0.63;;;;;;;;;;4970542;28;100458;-56
2024/02/19 09:16:45;;;;;;;4.20;0.90;;;;;;;;;;4977387;28;87833;-55
2024/02/19 09:19:10;;;;;;;3.00;0.70;;;;;;;;;;4976042;28;87786;-56
2024/02/19 09:21:37;;;;;;;1.27;0.43;;;;;;;;;;4970125;28;88054;-54
2024/02/19 09:24:02;;;;;;;2.85;0.90;;;;;;;;;;4976451;28;87447;-56
2024/02/19 09:26:27;;;;;;;2.43;0.73;;;;;;;;;;4976696;28;87721;-57
2024/02/19 09:28:53;;;;;;;1.60;0.63;;;;;;;;;;4978528;28;87210;-55
2024/02/19 09:31:22;;;;;;;1.37;0.40;;;;;;;;;;4974839;28;87343;-55
2024/02/19 09:33:48;;;;;;;2.45;0.52;;;;;;;;;;4976631;28;87514;-53
2024/02/19 09:36:16;;;;;;;2.20;0.50;;;;;;;;;;4974630;28;87071;-58
2024/02/19 09:38:42;;;;;;;1.03;0.67;;;;;;;;;;4976631;28;86467;-56
2024/02/19 09:41:07;;;;;;;4.90;0.50;;;;;;;;;;4978951;28;88595;-53
2024/02/19 09:43:32;;;;;;;2.10;0.73;;;;;;;;;;4974981;28;87730;-54
2024/02/19 09:45:58;;;;;;;1.60;0.70;;;;;;;;;;4966099;28;88056;-56
2024/02/19 09:48:24;;;;;;;3.20;0.60;;;;;;;;;;4972553;28;88369;-54
2024/02/19 09:50:51;;;;;;;2.20;0.70;;;;;;;;;;4980602;28;87429;-55
2024/02/19 09:53:22;;;;;;;2.80;0.80;;;;;;;;;;4973767;28;87247;-56
2024/02/19 09:55:47;;;;;;;1.55;0.63;;;;;;;;;;4977264;28;87102;-56
2024/02/19 09:58:13;;;;;;;3.50;0.83;;;;;;;;;;4977170;28;87059;-57
2024/02/19 10:00:38;;;;;;;3.57;0.80;;;;;;;;;;4979266;28;87123;-59
2024/02/19 10:03:03;;;;;;;3.17;0.53;;;;;;;;;;4978468;28;86176;-57
2024/02/19 10:05:29;;;;;;;1.67;0.80;;;;;;;;;;4974600;28;87628;-53
2024/02/19 10:07:59;;;;;;;2.73;0.60;;;;;;;;;;4975191;28;87497;-54
2024/02/19 10:10:24;;;;;;;1.58;0.40;;;;;;;;;;4973508;28;89530;-57
2024/02/19 10:12:49;;;;;;;2.50;0.87;;;;;;;;;;4971681;28;88006;-56
2024/02/19 10:15:15;;;;;;;2.83;0.60;;;;;;;;;;4971648;28;87903;-53
2024/02/19 10:17:40;;;;;;;1.63;0.70;;;;;;;;;;4974752;28;86953;-55
2024/02/19 10:20:05;;;;;;;3.00;0.70;;;;;;;;;;4976022;28;87411;-56
2024/02/19 10:22:32;;;;;;;3.35;0.70;;;;;;;;;;4972208;28;87149;-59
2024/02/19 10:24:57;;;;;;;1.77;0.55;;;;;;;;;;4976343;28;88221;-56
2024/02/19 10:27:22;;;;;;;2.57;0.70;;;;;;;;;;4973995;28;88059;-57
2024/02/19 10:29:48;;;;;;;2.20;0.63;;;;;;;;;;4978017;28;87004;-55
2024/02/19 10:32:13;;;;;;;1.40;0.70;;;;;;;;;;4978051;28;86960;-59
2024/02/19 10:34:38;;;;;;;4.03;0.73;;;;;;;;;;4976783;28;88173;-56
2024/02/19 10:37:05;;;;;;;2.00;0.80;;;;;;;;;;4975609;28;86931;-57
2024/02/19 10:39:31;;;;;;;2.03;0.50;;;;;;;;;;4975177;28;87493;-57
2024/02/19 10:41:56;;;;;;;1.10;0.70;;;;;;;;;;4981535;28;88674;-57
2024/02/19 10:44:23;;;;;;;0.40;0.40;;;;;;;;;;4979518;28;87507;-56
2024/02/19 10:46:48;;;;;;;1.98;0.85;;;;;;;;;;4980183;28;87650;-56
2024/02/19 10:49:19;;;;;;;3.90;1.00;;;;;;;;;;4980013;28;87646;-56
2024/02/19 10:51:45;;;;;;;1.55;1.00;;;;;;;;;;4982263;28;86296;-57
2024/02/19 10:54:10;;;;;;;2.03;1.03;;;;;;;;;;4980198;28;86999;-56
2024/02/19 10:56:37;;;;;;;2.40;0.80;;;;;;;;;;4980249;28;88127;-55
2024/02/19 10:59:02;;;;;;;3.92;1.10;;;;;;;;;;4983268;28;88286;-59
2024/02/19 11:01:41;;;;;;;1.50;0.85;;;;;;;;;;4972362;28;89220;-59
2024/02/19 11:04:15;;;;;;;2.70;0.80;;;;;;;;;;4980505;28;86976;-59
2024/02/19 11:06:47;;;;;;;5.95;1.08;;;;;;;;;;4978815;28;87487;-58
2024/02/19 11:09:13;;;;;;;3.90;0.93;;;;;;;;;;4978259;28;87731;-60
2024/02/19 11:11:56;;;;;;;3.60;1.10;;;;;;;;;;4982334;28;87323;-59
2024/02/19 11:14:22;;;;;;;3.00;0.90;;;;;;;;;;4982183;28;87386;-55
2024/02/19 11:16:48;;;;;;;2.65;0.95;;;;;;;;;;4979420;28;86419;-57
2024/02/19 11:19:13;;;;;;;3.33;1.00;;;;;;;;;;4976464;28;87235;-59
2024/02/19 11:21:38;;;;;;;1.10;0.53;;;;;;;;;;4976816;28;87805;-56
2024/02/19 11:24:04;;;;;;;1.70;0.80;;;;;;;;;;4980408;28;88612;-56
2024/02/19 11:26:31;;;;;;;3.63;1.10;;;;;;;;;;4977723;28;87215;-56
2024/02/19 11:28:56;;;;;;;1.63;0.80;;;;;;;;;;4979779;28;88699;-56
2024/02/19 11:31:21;;;;;;;2.50;0.83;;;;;;;;;;4976397;28;87194;-57
2024/02/19 11:33:50;;;;;;;2.67;0.93;;;;;;;;;;4977739;28;87657;-59
2024/02/19 11:36:15;;;;;;;1.50;0.80;;;;;;;;;;4977608;28;86754;-59
2024/02/19 11:38:41;;;;;;;2.17;1.10;;;;;;;;;;4978375;28;87492;-56
2024/02/19 11:41:09;;;;;;;2.53;0.80;;;;;;;;;;4976298;28;87710;-55
2024/02/19 11:43:34;;;;;;;4.37;0.90;;;;;;;;;;4982471;28;87622;-55
2024/02/19 11:46:00;;;;;;;1.37;0.97;;;;;;;;;;4981267;28;87943;-56
2024/02/19 11:48:25;;;;;;;1.20;0.70;;;;;;;;;;4976511;28;88338;-56
2024/02/19 11:50:50;;;;;;;2.40;0.90;;;;;;;;;;4983028;28;88878;-59
2024/02/19 11:53:16;;;;;;;1.80;1.00;;;;;;;;;;4978037;28;87611;-60
2024/02/19 11:55:42;;;;;;;1.75;0.90;;;;;;;;;;4977257;28;86955;-59
2024/02/19 11:58:10;;;;;;;1.20;0.75;;;;;;;;;;4980769;28;87140;-56
2024/02/19 12:00:35;;;;;;;1.67;0.90;;;;;;;;;;4979640;28;87337;-56
2024/02/19 12:03:02;;;;;;;2.00;1.03;;;;;;;;;;4980429;28;86924;-58
2024/02/19 12:05:27;;;;;;;1.57;0.83;;;;;;;;;;4981903;28;87245;-56
2024/02/19 12:07:53;;;;;;;1.73;0.80;;;;;;;;;;4976324;28;87524;-57
2024/02/19 12:10:18;;;;;;;2.37;0.80;;;;;;;;;;4978489;28;87078;-58
2024/02/19 12:12:43;;;;;;;1.40;0.57;;;;;;;;;;4977050;28;88008;-55
2024/02/19 12:15:13;;;;;;;1.83;0.73;;;;;;;;;;4978609;28;87578;-56
2024/02/19 12:17:39;;;;;;;1.50;0.80;;;;;;;;;;4977716;28;87122;-54
2024/02/19 12:20:07;;;;;;;3.08;1.38;;;;;;;;;;4978801;28;87409;-57
2024/02/19 12:22:32;;;;;;;1.65;0.93;;;;;;;;;;4979451;28;87073;-57
2024/02/19 12:24:58;;;;;;;1.30;0.70;;;;;;;;;;4978996;28;88022;-59
2024/02/19 12:27:23;;;;;;;5.50;1.20;;;;;;;;;;4976881;28;86856;-57
2024/02/19 12:29:52;;;;;;;2.27;0.83;;;;;;;;;;4980886;28;86375;-55
2024/02/19 12:32:17;;;;;;;2.33;1.02;;;;;;;;;;4977048;28;87031;-59
2024/02/19 12:34:44;;;;;;;1.97;0.77;;;;;;;;;;4976391;28;87953;-53
2024/02/19 12:37:09;;;;;;;1.10;0.75;;;;;;;;;;4974490;28;88848;-58
2024/02/19 12:39:34;;;;;;;1.67;0.83;;;;;;;;;;4974275;28;87567;-56
2024/02/19 12:41:59;;;;;;;1.13;0.60;;;;;;;;;;4976075;28;87148;-56
2024/02/19 12:44:25;;;;;;;3.63;1.00;;;;;;;;;;4978677;28;87006;-56
2024/02/19 12:46:50;;;;;;;2.70;0.87;;;;;;;;;;4978844;28;87734;-57
2024/02/19 12:49:16;;;;;;;1.90;0.70;;;;;;;;;;4975846;28;87302;-56
2024/02/19 12:51:42;;;;;;;0.95;0.60;;;;;;;;;;4975758;28;87780;-57
2024/02/19 12:54:08;;;;;;;5.38;1.10;;;;;;;;;;4970589;28;86591;-57
2024/02/19 12:56:35;;;;;;;1.90;0.85;;;;;;;;;;4979976;28;87750;-57
2024/02/19 12:59:01;;;;;;;1.52;0.82;;;;;;;;;;4974750;28;87030;-56
2024/02/19 13:01:26;;;;;;;4.53;0.90;;;;;;;;;;4975887;28;89055;-60
2024/02/19 13:03:51;;;;;;;3.07;0.80;;;;;;;;;;4977402;28;87076;-55
2024/02/19 13:06:19;;;;;;;1.90;0.50;;;;;;;;;;4976964;28;87087;-55
2024/02/19 13:08:46;;;;;;;3.03;0.93;;;;;;;;;;4977071;28;87216;-57
2024/02/19 13:11:12;;;;;;;4.32;0.93;;;;;;;;;;4980988;28;87101;-60
2024/02/19 13:13:37;;;;;;;1.70;0.87;;;;;;;;;;4977767;28;87154;-57
2024/02/19 13:16:03;;;;;;;2.27;1.20;;;;;;;;;;4978832;28;87569;-57
2024/02/19 13:18:30;;;;;;;4.13;1.47;;;;;;;;;;4973837;28;86282;-59
2024/02/19 13:20:55;;;;;;;3.50;1.80;;;;;;;;;;4975452;28;87222;-60
2024/02/19 13:23:20;;;;;;;4.50;1.47;;;;;;;;;;4978616;28;87038;-57
2024/02/19 13:25:45;;;;;;;3.00;1.23;;;;;;;;;;4979724;28;88276;-56
2024/02/19 13:28:10;;;;;;;6.60;1.93;;;;;;;;;;4973749;28;87647;-60
2024/02/19 13:30:36;;;;;;;3.20;1.30;;;;;;;;;;4974863;28;87427;-55
2024/02/19 13:33:06;;;;;;;4.32;1.20;;;;;;;;;;4978406;28;87506;-56
2024/02/19 13:35:32;;;;;;;2.83;1.40;;;;;;;;;;4975972;28;88236;-57
2024/02/19 13:37:58;;;;;;;4.90;1.60;;;;;;;;;;4969223;28;87422;-55
2024/02/19 13:40:24;;;;;;;2.58;1.90;;;;;;;;;;4973431;28;87262;-58
2024/02/19 13:42:49;;;;;;;2.30;1.43;;;;;;;;;;4978291;28;86428;-56
2024/02/19 13:45:14;;;;;;;7.03;1.57;;;;;;;;;;4974778;28;87703;-61
2024/02/19 13:47:39;;;;;;;2.57;1.17;;;;;;;;;;4976656;28;87641;-60
2024/02/19 13:50:06;;;;;;;5.53;1.30;;;;;;;;;;4974768;28;88391;-57
2024/02/19 13:52:31;;;;;;;3.33;1.42;;;;;;;;;;4976986;28;88146;-60
2024/02/19 13:54:58;;;;;;;4.37;1.50;;;;;;;;;;4976313;28;87015;-57
2024/02/19 13:57:23;;;;;;;2.92;1.20;;;;;;;;;;4976365;28;87443;-55
2024/02/19 13:59:51;;;;;;;7.20;1.60;;;;;;;;;;4976710;28;87562;-59
2024/02/19 14:02:16;;;;;;;2.80;1.40;;;;;;;;;;4979968;28;87314;-58
2024/02/19 14:04:41;;;;;;;3.13;1.38;;;;;;;;;;4976166;28;86746;-58
2024/02/19 14:07:09;;;;;;;4.07;1.40;;;;;;;;;;4979319;28;87258;-57
2024/02/19 14:09:34;;;;;;;29.83;8.25;;;;;;;;;;4977955;28;87057;-60
2024/02/19 14:11:59;;;;;;;213.50;65.25;;;;;;;;;;4970997;28;86924;-58
2024/02/19 14:14:24;;;;;;;240.43;84.67;;;;;;;;;;4977931;28;88228;-57
2024/02/19 14:16:51;;;;;;;221.20;77.27;;;;;;;;;;4979794;28;87496;-58
2024/02/19 14:19:16;;;;;;;195.73;67.80;;;;;;;;;;4987513;28;87150;-60
2024/02/19 14:21:42;;;;;;;199.07;65.00;;;;;;;;;;4975018;28;87490;-59
2024/02/19 14:24:07;;;;;;;162.47;54.63;;;;;;;;;;4980325;28;88576;-57
2024/02/19 14:26:32;;;;;;;154.97;52.50;;;;;;;;;;4980981;28;89026;-58
2024/02/19 14:29:01;;;;;;;134.97;46.23;;;;;;;;;;4984636;28;87509;-56
2024/02/19 14:31:26;;;;;;;122.68;41.53;;;;;;;;;;4987416;28;87557;-58